William — WDF2392 — position and weather

sailwx.info

Track history (hours):
 
Tides and Currents Weather Stations Pressure Air Temp Water Temp Dewpoint Dewpoint Depression Visibility Wind Speed Wind Dir Waves Ship Positions

William

Owner: Enterprise Marine Services, LLC, San Antonio, TX. More information available from US FCC via Universal Licensing System and Coast Guard Vessel Documentation Center.

Last reported at 2017-Oct-03 11:15 UTC. Time now 2017-Nov-21 19:05 UTC.
Position N 29°33' W 090°25'.
Warning: this ship's position is 49 days out of date.

Length 22 m; draft 2.7 m.

Type: Towing. MMSI: 367423260.

Date/timePositionNaut miles runAvg speedWind from/ knotsBaromVisibWave heightAir tempDewpointWater temp
2017-Oct-03 11:15N 29°33' W 090°25'1 4.6
2017-Oct-03 10:59N 29°33' W 090°26'3 6.3
2017-Oct-03 10:30N 29°34' W 090°30'3 6.2
2017-Oct-03 10:00N 29°34' W 090°33'3 5.9
2017-Oct-03 09:30N 29°35' W 090°36'3 5.8
2017-Oct-03 09:00N 29°36' W 090°39'3 5.5
2017-Oct-03 08:30N 29°37' W 090°42'3 5.3
2017-Oct-03 08:00N 29°34' W 090°43'2 4.2
2017-Oct-03 07:30N 29°33' W 090°45'0 0.0
2017-Oct-03 07:00N 29°33' W 090°45'0 0.1
2017-Oct-03 06:30N 29°33' W 090°45'2 3.0
2017-Oct-03 06:00N 29°32' W 090°47'67 4.9
2017-Oct-02 16:34N 29°50' W 092°01'1 6.8
2017-Oct-02 16:23N 29°49' W 092°02'3 6.8
2017-Oct-02 16:00N 29°48' W 092°05'3 6.9
2017-Oct-02 15:30N 29°47' W 092°08'3 5.5
2017-Oct-02 15:00N 29°47' W 092°12'1 1.5
2017-Oct-02 14:30N 29°47' W 092°12'0 0.8
2017-Oct-02 14:00N 29°47' W 092°13'1 1.2
2017-Oct-02 13:30N 29°48' W 092°14'0 1.0
2017-Oct-02 13:00N 29°48' W 092°14'3 5.8
2017-Oct-02 12:27N 29°49' W 092°17'2 4.8
2017-Oct-02 12:00N 29°50' W 092°19'40 5.7
2017-Oct-02 04:59N 29°56' W 093°05'3 5.5
2017-Oct-02 04:31N 29°56' W 093°08'3 5.4
2017-Oct-02 04:01N 29°57' W 093°10'3 5.9
2017-Oct-02 03:31N 29°59' W 093°13'3 5.2
2017-Oct-02 03:01N 30°02' W 093°14'3 5.2
2017-Oct-02 02:30N 30°04' W 093°16'3 5.4
2017-Oct-02 02:01N 30°06' W 093°18'2 4.6
2017-Oct-02 01:31N 30°04' W 093°20'3 5.5
2017-Oct-02 01:00N 30°04' W 093°23'3 6.4
2017-Oct-02 00:31N 30°04' W 093°27'20 0.4
2017-Sep-30 02:00N 29°56' W 093°06'39 5.1
2017-Sep-29 18:14N 29°51' W 092°21'2 5.5
2017-Sep-29 17:56N 29°50' W 092°19'2 4.6
2017-Sep-29 17:31N 29°49' W 092°17'3 5.7
2017-Sep-29 17:00N 29°48' W 092°14'3 5.5
2017-Sep-29 16:31N 29°47' W 092°11'2 4.7
2017-Sep-29 16:01N 29°47' W 092°09'3 5.6
2017-Sep-29 15:31N 29°48' W 092°06'59 4.7
2017-Sep-29 02:59N 29°37' W 090°59'3 6.1
2017-Sep-29 02:29N 29°34' W 090°57'3 6.3
2017-Sep-29 02:00N 29°33' W 090°54'3 5.7
2017-Sep-29 01:30N 29°32' W 090°51'3 6.0
2017-Sep-29 01:01N 29°32' W 090°47'2 4.8
2017-Sep-29 00:31N 29°34' W 090°45'2 4.6
2017-Sep-29 00:01N 29°35' W 090°43'2 4.1
2017-Sep-28 23:31N 29°37' W 090°42'3 5.4
2017-Sep-28 23:00N 29°35' W 090°39'3 5.5
2017-Sep-28 22:31N 29°35' W 090°36'  
Track history (hours):
 
Tides and Currents Weather Stations Pressure Air Temp Water Temp Dewpoint Dewpoint Depression Visibility Wind Speed Wind Dir Waves Ship Positions

William

Owner: Enterprise Marine Services, LLC, San Antonio, TX. More information available from US FCC via Universal Licensing System and Coast Guard Vessel Documentation Center.

Last reported at 2017-Oct-03 11:15 UTC. Time now 2017-Nov-21 19:05 UTC.
Position N 29°33' W 090°25'.
Warning: this ship's position is 49 days out of date.

Length 22 m; draft 2.7 m.

Type: Towing. MMSI: 367423260.

Date/timePositionNaut miles runAvg speedWind from/ knotsBaromVisibWave heightAir tempDewpointWater temp
2017-Oct-03 11:15N 29°33' W 090°25'1 4.6
2017-Oct-03 10:59N 29°33' W 090°26'3 6.3
2017-Oct-03 10:30N 29°34' W 090°30'3 6.2
2017-Oct-03 10:00N 29°34' W 090°33'3 5.9
2017-Oct-03 09:30N 29°35' W 090°36'3 5.8
2017-Oct-03 09:00N 29°36' W 090°39'3 5.5
2017-Oct-03 08:30N 29°37' W 090°42'3 5.3
2017-Oct-03 08:00N 29°34' W 090°43'2 4.2
2017-Oct-03 07:30N 29°33' W 090°45'0 0.0
2017-Oct-03 07:00N 29°33' W 090°45'0 0.1
2017-Oct-03 06:30N 29°33' W 090°45'2 3.0
2017-Oct-03 06:00N 29°32' W 090°47'67 4.9
2017-Oct-02 16:34N 29°50' W 092°01'1 6.8
2017-Oct-02 16:23N 29°49' W 092°02'3 6.8
2017-Oct-02 16:00N 29°48' W 092°05'3 6.9
2017-Oct-02 15:30N 29°47' W 092°08'3 5.5
2017-Oct-02 15:00N 29°47' W 092°12'1 1.5
2017-Oct-02 14:30N 29°47' W 092°12'0 0.8
2017-Oct-02 14:00N 29°47' W 092°13'1 1.2
2017-Oct-02 13:30N 29°48' W 092°14'0 1.0
2017-Oct-02 13:00N 29°48' W 092°14'3 5.8
2017-Oct-02 12:27N 29°49' W 092°17'2 4.8
2017-Oct-02 12:00N 29°50' W 092°19'40 5.7
2017-Oct-02 04:59N 29°56' W 093°05'3 5.5
2017-Oct-02 04:31N 29°56' W 093°08'3 5.4
2017-Oct-02 04:01N 29°57' W 093°10'3 5.9
2017-Oct-02 03:31N 29°59' W 093°13'3 5.2
2017-Oct-02 03:01N 30°02' W 093°14'3 5.2
2017-Oct-02 02:30N 30°04' W 093°16'3 5.4
2017-Oct-02 02:01N 30°06' W 093°18'2 4.6
2017-Oct-02 01:31N 30°04' W 093°20'3 5.5
2017-Oct-02 01:00N 30°04' W 093°23'3 6.4
2017-Oct-02 00:31N 30°04' W 093°27'20 0.4
2017-Sep-30 02:00N 29°56' W 093°06'39 5.1
2017-Sep-29 18:14N 29°51' W 092°21'2 5.5
2017-Sep-29 17:56N 29°50' W 092°19'2 4.6
2017-Sep-29 17:31N 29°49' W 092°17'3 5.7
2017-Sep-29 17:00N 29°48' W 092°14'3 5.5
2017-Sep-29 16:31N 29°47' W 092°11'2 4.7
2017-Sep-29 16:01N 29°47' W 092°09'3 5.6
2017-Sep-29 15:31N 29°48' W 092°06'59 4.7
2017-Sep-29 02:59N 29°37' W 090°59'3 6.1
2017-Sep-29 02:29N 29°34' W 090°57'3 6.3
2017-Sep-29 02:00N 29°33' W 090°54'3 5.7
2017-Sep-29 01:30N 29°32' W 090°51'3 6.0
2017-Sep-29 01:01N 29°32' W 090°47'2 4.8
2017-Sep-29 00:31N 29°34' W 090°45'2 4.6
2017-Sep-29 00:01N 29°35' W 090°43'2 4.1
2017-Sep-28 23:31N 29°37' W 090°42'3 5.4
2017-Sep-28 23:00N 29°35' W 090°39'3 5.5
2017-Sep-28 22:31N 29°35' W 090°36'  

Dump ship's entire track history